createdAt,value
2022-11-17T00:03:16.599Z,15.73
2022-11-17T00:09:00.739Z,15.74
2022-11-17T00:14:43.747Z,15.71
2022-11-17T00:20:27.329Z,15.68
2022-11-17T00:26:10.187Z,15.66
2022-11-17T00:31:53.198Z,15.62
2022-11-17T00:37:37.675Z,15.56
2022-11-17T00:43:20.832Z,15.56
2022-11-17T00:49:04.276Z,15.54
2022-11-17T00:54:48.265Z,15.52
2022-11-17T01:00:31.316Z,15.5
2022-11-17T01:06:14.902Z,15.49
2022-11-17T01:11:57.921Z,15.48
2022-11-17T01:17:40.795Z,15.48
2022-11-17T01:23:23.963Z,15.48
2022-11-17T01:29:07.413Z,15.48
2022-11-17T01:34:50.613Z,15.47
2022-11-17T01:40:33.636Z,15.46
2022-11-17T01:46:19.797Z,15.41
2022-11-17T01:52:05.957Z,15.44
2022-11-17T01:57:51.044Z,15.43
2022-11-17T02:03:35.161Z,15.42
2022-11-17T02:09:20.768Z,15.43
2022-11-17T02:15:04.392Z,15.45
2022-11-17T02:20:54.845Z,15.51
2022-11-17T02:26:51.450Z,15.52
2022-11-17T02:32:39.800Z,15.54
2022-11-17T02:38:28.052Z,15.54
2022-11-17T02:44:13.344Z,15.55
2022-11-17T02:49:59.434Z,15.6
2022-11-17T02:55:47.011Z,15.59
2022-11-17T03:01:41.496Z,15.57
2022-11-17T03:07:32.861Z,15.61
2022-11-17T03:13:18.621Z,15.61
2022-11-17T03:19:06.262Z,15.63
2022-11-17T03:24:50.715Z,15.62
2022-11-17T03:30:37.393Z,15.62
2022-11-17T03:36:22.883Z,15.62
2022-11-17T03:42:07.970Z,15.61
2022-11-17T03:47:53.467Z,15.61
2022-11-17T03:53:36.512Z,15.63
2022-11-17T03:59:24.353Z,15.59
2022-11-17T04:05:07.788Z,15.58
2022-11-17T04:10:51.819Z,15.55
2022-11-17T04:16:34.703Z,15.53
2022-11-17T04:22:17.439Z,15.53
2022-11-17T04:28:00.414Z,15.51
2022-11-17T04:33:44.232Z,15.49
2022-11-17T04:39:27.012Z,15.46
2022-11-17T04:45:10.415Z,15.45
2022-11-17T04:50:56.790Z,15.45
2022-11-17T04:56:40.031Z,15.46
2022-11-17T05:02:22.738Z,15.44
2022-11-17T05:08:05.615Z,15.42
2022-11-17T05:13:48.429Z,15.4
2022-11-17T05:19:32.623Z,15.39
2022-11-17T05:25:15.523Z,15.38
2022-11-17T05:30:58.561Z,15.37
2022-11-17T05:36:41.790Z,15.38
2022-11-17T05:42:24.656Z,15.36
2022-11-17T05:48:07.715Z,15.35
2022-11-17T05:53:50.775Z,15.35
2022-11-17T05:59:36.482Z,15.33
2022-11-17T06:05:20.534Z,15.33
2022-11-17T06:11:03.613Z,15.31
2022-11-17T06:16:47.900Z,15.3
2022-11-17T06:22:31.397Z,15.29
2022-11-17T06:28:16.685Z,15.28
2022-11-17T06:33:59.717Z,15.28
2022-11-17T06:39:42.658Z,15.3
2022-11-17T06:45:26.629Z,15.31
2022-11-17T06:51:09.912Z,15.29
2022-11-17T06:56:52.912Z,15.27
2022-11-17T07:02:36.158Z,15.26
2022-11-17T07:08:19.423Z,15.23
2022-11-17T07:14:02.725Z,15.24
2022-11-17T07:19:46.097Z,15.26
2022-11-17T07:25:29.407Z,15.28
2022-11-17T07:31:13.509Z,15.31
2022-11-17T07:36:56.874Z,15.35
2022-11-17T07:42:40.006Z,15.39
2022-11-17T07:48:23.086Z,15.48
2022-11-17T07:54:07.404Z,15.56
2022-11-17T07:59:50.758Z,15.63
2022-11-17T08:05:38.576Z,15.79
2022-11-17T08:11:27.080Z,15.84
2022-11-17T08:17:10.267Z,15.95
2022-11-17T08:22:53.577Z,16
2022-11-17T08:28:37.102Z,16.09
2022-11-17T08:34:21.742Z,16.08
2022-11-17T08:40:05.551Z,16.1
2022-11-17T08:45:48.907Z,16.18
2022-11-17T08:51:32.081Z,16.25
2022-11-17T08:57:15.414Z,16.23
2022-11-17T09:02:58.842Z,16.33
2022-11-17T09:08:46.877Z,16.34
2022-11-17T09:14:31.721Z,16.41
2022-11-17T09:20:15.321Z,16.7
2022-11-17T09:25:58.736Z,16.97
2022-11-17T09:31:42.018Z,16.81
2022-11-17T09:37:25.291Z,16.75
2022-11-17T09:43:15.578Z,16.72
2022-11-17T09:49:02.673Z,16.87
2022-11-17T09:54:49.249Z,16.89
2022-11-17T10:00:33.199Z,16.94
2022-11-17T10:06:19.758Z,17.02
2022-11-17T10:12:10.538Z,17.08
2022-11-17T10:17:53.961Z,17.17
2022-11-17T10:23:42.927Z,17.15
2022-11-17T10:29:30.191Z,17.42
2022-11-17T10:35:17.975Z,17.76
2022-11-17T10:41:03.301Z,17.89
2022-11-17T10:47:01.888Z,18.15
2022-11-17T10:52:45.795Z,18.32
2022-11-17T10:58:29.495Z,18.18
2022-11-17T11:04:23.738Z,18.12
2022-11-17T11:10:13.058Z,18.14
2022-11-17T11:15:56.310Z,18.15
2022-11-17T11:21:47.152Z,18.23
2022-11-17T11:27:35.124Z,18.3
2022-11-17T11:33:27.773Z,18.3
2022-11-17T11:39:13.367Z,18.33
2022-11-17T11:45:08.611Z,18.37
2022-11-17T11:50:56.968Z,18.4
2022-11-17T11:56:41.603Z,18.38
2022-11-17T12:02:30.906Z,18.44
2022-11-17T12:08:17.660Z,18.56
2022-11-17T12:14:02.848Z,18.61
2022-11-17T12:19:52.566Z,18.88
2022-11-17T12:25:41.982Z,18.71
2022-11-17T12:31:48.225Z,18.71
2022-11-17T12:37:31.374Z,18.61
2022-11-17T12:43:24.297Z,18.67
2022-11-17T12:49:12.202Z,18.66
2022-11-17T12:55:00.870Z,18.6
2022-11-17T13:00:51.029Z,18.62
2022-11-17T13:06:36.160Z,18.83
2022-11-17T13:12:21.218Z,19.07
2022-11-17T13:18:08.184Z,18.96
2022-11-17T13:23:52.364Z,18.9
2022-11-17T13:29:35.666Z,18.84
2022-11-17T13:35:23.444Z,18.89
2022-11-17T13:41:06.458Z,18.81
2022-11-17T13:46:50.148Z,18.68
2022-11-17T13:52:40.704Z,18.7
2022-11-17T13:58:34.254Z,18.82
2022-11-17T14:04:20.258Z,18.72
2022-11-17T14:10:25.434Z,18.62
2022-11-17T14:16:19.218Z,18.59
2022-11-17T14:22:04.485Z,18.49
2022-11-17T14:27:52.014Z,18.45
2022-11-17T14:33:35.813Z,18.39
2022-11-17T14:39:19.261Z,18.29
2022-11-17T14:45:02.883Z,18.23
2022-11-17T14:50:46.196Z,18.19
2022-11-17T14:56:29.288Z,18.16
2022-11-17T15:02:12.551Z,18.07
2022-11-17T15:07:55.763Z,18.02
2022-11-17T15:13:38.622Z,17.94
2022-11-17T15:19:21.784Z,17.84
2022-11-17T15:25:05.434Z,17.73
2022-11-17T15:30:48.267Z,17.62
2022-11-17T15:36:33.325Z,17.5
2022-11-17T15:42:16.284Z,17.38
2022-11-17T15:47:59.462Z,17.27
2022-11-17T15:53:43.768Z,17.17
2022-11-17T15:59:27.026Z,17.06
2022-11-17T16:05:10.811Z,16.96
2022-11-17T16:10:53.877Z,16.9
2022-11-17T16:16:37.916Z,16.82
2022-11-17T16:22:21.163Z,16.76
2022-11-17T16:28:04.578Z,16.68
2022-11-17T16:33:51.749Z,16.62
2022-11-17T16:39:34.896Z,16.61
2022-11-17T16:45:17.864Z,16.55
2022-11-17T16:51:05.880Z,16.51
2022-11-17T16:56:49.339Z,16.45
2022-11-17T17:02:32.459Z,16.4
2022-11-17T17:08:16.078Z,16.36
2022-11-17T17:14:00.267Z,16.33
2022-11-17T17:19:43.578Z,16.31
2022-11-17T17:25:26.591Z,16.25
2022-11-17T17:31:10.725Z,16.18
2022-11-17T17:37:03.091Z,16.14
2022-11-17T17:42:46.496Z,16.11
2022-11-17T17:48:29.923Z,16.06
2022-11-17T17:54:14.398Z,16.01
2022-11-17T17:59:57.350Z,15.94
2022-11-17T18:05:40.367Z,15.89
2022-11-17T18:11:23.806Z,15.83
2022-11-17T18:17:06.794Z,15.82
2022-11-17T18:22:49.755Z,15.79
2022-11-17T18:28:32.802Z,15.71
2022-11-17T18:34:17.914Z,15.65
2022-11-17T18:40:00.921Z,15.61
2022-11-17T18:45:44.314Z,15.58
2022-11-17T18:51:28.482Z,15.56
2022-11-17T18:57:11.503Z,15.54
2022-11-17T19:02:54.489Z,15.52
2022-11-17T19:08:37.803Z,15.51
2022-11-17T19:14:21.809Z,15.49
2022-11-17T19:20:05.194Z,15.47
2022-11-17T19:25:48.241Z,15.47
2022-11-17T19:31:31.590Z,15.48
2022-11-17T19:37:14.515Z,15.45
2022-11-17T19:42:57.363Z,15.44
2022-11-17T19:48:40.829Z,15.43
2022-11-17T19:54:24.893Z,15.42
2022-11-17T20:00:09.161Z,15.42
2022-11-17T20:05:52.094Z,15.45
2022-11-17T20:11:35.314Z,15.44
2022-11-17T20:17:18.234Z,15.43
2022-11-17T20:23:01.250Z,15.36
2022-11-17T20:28:44.438Z,15.32
2022-11-17T20:34:27.561Z,15.27
2022-11-17T20:40:11.491Z,15.23
2022-11-17T20:45:56.556Z,15.21
2022-11-17T20:51:39.802Z,15.19
2022-11-17T20:57:24.071Z,15.17
2022-11-17T21:03:07.170Z,15.13
2022-11-17T21:08:50.260Z,15.11
2022-11-17T21:14:33.458Z,15.07
2022-11-17T21:20:16.587Z,15.06
2022-11-17T21:26:02.139Z,15.05
2022-11-17T21:31:45.262Z,15.04
2022-11-17T21:37:28.077Z,15.01
2022-11-17T21:43:11.049Z,15.02
2022-11-17T21:48:54.854Z,15.01
2022-11-17T21:54:38.029Z,15
2022-11-17T22:00:22.532Z,15.02
2022-11-17T22:06:10.863Z,14.99
2022-11-17T22:11:55.293Z,15.01
2022-11-17T22:17:38.464Z,15
2022-11-17T22:23:21.468Z,14.99
2022-11-17T22:29:05.294Z,14.97
2022-11-17T22:34:48.827Z,14.94
2022-11-17T22:40:32.174Z,14.9
2022-11-17T22:46:15.082Z,14.88
2022-11-17T22:51:58.400Z,14.87
2022-11-17T22:57:41.402Z,14.83
2022-11-17T23:03:24.439Z,14.81
2022-11-17T23:09:09.054Z,14.78
2022-11-17T23:14:52.089Z,14.76
2022-11-17T23:20:35.747Z,14.75
2022-11-17T23:26:18.923Z,14.7
2022-11-17T23:32:03.308Z,14.7
2022-11-17T23:37:46.652Z,14.68
2022-11-17T23:43:29.869Z,14.68
2022-11-17T23:49:12.999Z,14.66
2022-11-17T23:54:57.336Z,14.64
